Airfield :
LOGIN :

Register | Disclaimer

   EN    FR    IT 

 










Legend :    VFR   Marginal VFR   IFR   Intensive IFR   Very Intensive IFR
Visi :
Ceiling :
>= 8 km
>= 3000ft
5 to 8 km
1000 to 3000 ft
1500m to 5 km
500 to 1000 ft
800 to 1500m
200 to 500 ft
< 800m
< 200 ft
Symbols :   Thunderstorms  Fog  Heavy snow  Heavy precipitations  Wind > 20 kt
SIGMETs :     Misc.  Thunderstorms  Icing  Turbulence  Mountain Waves  Volcanic Ashes







- Airport Elevation : 598 ft
- IATA code : BQH
- Download approach charts


EGKB - Biggin Hill

CURRENT METAR :
  • 161420Z 19013KT 9999 SCT017 17/13 Q1016

EXPIRED METARs :
  • 161350Z 20013KT 9999 SCT020 18/13 Q1016
  • 161320Z 18015KT 160V230 9999 SCT024 19/13 Q1016
  • 161250Z 18016KT 150V210 9999 FEW024 19/14 Q1016
  • 161220Z 18014KT 9999 FEW020 19/14 Q1016
  • 161150Z 17011KT 9999 FEW020 19/15 Q1016

TAF TAF EGKB
Valid from the 16 at 12:00 until the 16 at 21:00 UTC


161100Z 1612/1621 19010KT 9999 SCT018
TEMPO 1614/1620 BKN012
No reported NOTAMs for that airfield.



MET'MAP, your aeronautical weather chart ! - Copyright ORBIFLY December 2007 - Disclaimer

ORBIFLY MET'MAP TEAM :

Programming & Development : Alexandra Zaïnal
Concept & Development : Baudouin d'Aumeries
Co-Development & Prog : Marc-Olivier Méhu
Technical & hardware support : Manuel Goepfert

Contact : metmap@orbifly.com




SOURCES & CREDITS :

   NOAA